UAL546 SYCJ-KORD
Flight info
| Callsign | UAL546 |
|---|---|
| Flight time | N/A |
| Altitude | 34000 |
| Route | TIM UA324 MINDA UL452 ANADA L452 HARBG Y421 HAGIT Y306 VENDS/N0465F360 Y185 MANLE Q89 PRMUS/N0467F350 Q93 GIPPL/N0462F370 Q93 ISUZO Q69 GURGE/N0464F360 Q93 FISHO/N0460F370 Q93 QUIWE/N0462F360 Q93 HEVAN Q118 BONNT VEECK5 |
| Aircraft | A20N/M-SDE2E3FGHIRWXY/LB1 |
Departure
| Time | 2026-05-05 15:47 |
|---|---|
| Airport | Cheddi Jagan International Airport (SYCJ) |
Arrival
| Time | N/A |
|---|---|
| Airport | Chicago O'Hare International Airport (KORD) |
| Time | Latitude | Longitude | Altitude | Speed | Heading |
|---|---|---|---|---|---|
| 2026-05-05 15:34 | 6.50283 | -58.25300 | 82 ft | 0 kts | 59° |
| 2026-05-05 15:41 | 6.50283 | -58.25299 | 81 ft | 1 kts | 59° |
| 2026-05-05 15:42 | 6.50301 | -58.25267 | 84 ft | 7 kts | 63° |
| 2026-05-05 15:42 | 6.50293 | -58.25251 | 83 ft | 2 kts | 154° |
| 2026-05-05 15:42 | 6.50273 | -58.25244 | 83 ft | 4 kts | 170° |
| 2026-05-05 15:42 | 6.50255 | -58.25253 | 85 ft | 3 kts | 212° |
| 2026-05-05 15:43 | 6.50214 | -58.25263 | 83 ft | 8 kts | 169° |
| 2026-05-05 15:43 | 6.50156 | -58.25271 | 85 ft | 9 kts | 217° |
| 2026-05-05 15:43 | 6.50110 | -58.25316 | 85 ft | 10 kts | 224° |
| 2026-05-05 15:43 | 6.50056 | -58.25369 | 85 ft | 14 kts | 225° |
| 2026-05-05 15:44 | 6.49973 | -58.25454 | 85 ft | 19 kts | 226° |
| 2026-05-05 15:44 | 6.49879 | -58.25549 | 89 ft | 20 kts | 224° |
| 2026-05-05 15:44 | 6.49749 | -58.25674 | 87 ft | 30 kts | 223° |
| 2026-05-05 15:44 | 6.49582 | -58.25843 | 92 ft | 38 kts | 223° |
| 2026-05-05 15:45 | 6.49396 | -58.26033 | 93 ft | 39 kts | 224° |
| 2026-05-05 15:45 | 6.49277 | -58.26125 | 95 ft | 11 kts | 174° |
| 2026-05-05 15:45 | 6.49220 | -58.26101 | 95 ft | 9 kts | 139° |
| 2026-05-05 15:45 | 6.49208 | -58.26063 | 97 ft | 4 kts | 43° |
| 2026-05-05 15:46 | 6.49210 | -58.26061 | 97 ft | 0 kts | 44° |
| 2026-05-05 15:46 | 6.49210 | -58.26060 | 97 ft | 0 kts | 44° |
| 2026-05-05 15:46 | 6.49242 | -58.26030 | 97 ft | 30 kts | 44° |
| 2026-05-05 15:46 | 6.49571 | -58.25696 | 93 ft | 102 kts | 45° |
| 2026-05-05 15:47 | 6.50217 | -58.25055 | 81 ft | 156 kts | 44° |
| 2026-05-05 15:47 | 6.51021 | -58.24218 | 491 ft | 166 kts | 49° |
| 2026-05-05 15:47 | 6.51698 | -58.23312 | 1318 ft | 155 kts | 59° |
| 2026-05-05 15:47 | 6.52154 | -58.22357 | 2109 ft | 153 kts | 72° |
| 2026-05-05 15:48 | 6.52355 | -58.21312 | 2794 ft | 155 kts | 84° |
| 2026-05-05 15:48 | 6.52487 | -58.20168 | 3143 ft | 169 kts | 83° |
| 2026-05-05 15:48 | 6.52660 | -58.19026 | 3827 ft | 162 kts | 79° |
| 2026-05-05 15:48 | 6.52894 | -58.17814 | 4056 ft | 194 kts | 78° |
| 2026-05-05 15:49 | 6.53183 | -58.16449 | 4400 ft | 219 kts | 70° |
| 2026-05-05 15:49 | 6.54144 | -58.15114 | 4598 ft | 248 kts | 37° |
| 2026-05-05 15:49 | 6.55770 | -58.14422 | 5196 ft | 266 kts | 10° |
| 2026-05-05 15:49 | 6.57663 | -58.14576 | 5744 ft | 285 kts | 343° |
| 2026-05-05 15:50 | 6.59405 | -58.15615 | 6284 ft | 302 kts | 318° |
| 2026-05-05 15:50 | 6.60622 | -58.17390 | 6820 ft | 318 kts | 292° |
| 2026-05-05 15:50 | 6.61169 | -58.19525 | 7335 ft | 316 kts | 281° |
| 2026-05-05 15:50 | 6.61667 | -58.21631 | 7842 ft | 297 kts | 290° |
| 2026-05-05 15:51 | 6.62543 | -58.23515 | 8383 ft | 301 kts | 303° |
| 2026-05-05 15:51 | 6.63814 | -58.25202 | 8925 ft | 304 kts | 314° |
| 2026-05-05 15:51 | 6.65294 | -58.26686 | 9466 ft | 306 kts | 319° |
| 2026-05-05 15:51 | 6.66913 | -58.28097 | 10016 ft | 309 kts | 322° |
| 2026-05-05 15:52 | 6.68582 | -58.29475 | 10516 ft | 312 kts | 322° |
| 2026-05-05 15:52 | 6.70293 | -58.30872 | 10659 ft | 315 kts | 322° |
| 2026-05-05 15:52 | 6.71984 | -58.32258 | 10752 ft | 313 kts | 322° |
| 2026-05-05 15:52 | 6.73671 | -58.33649 | 10921 ft | 312 kts | 322° |
| 2026-05-05 15:53 | 6.75333 | -58.35025 | 11386 ft | 315 kts | 322° |
| 2026-05-05 15:53 | 6.77033 | -58.36436 | 11939 ft | 318 kts | 322° |
| 2026-05-05 15:53 | 6.78753 | -58.37864 | 12502 ft | 322 kts | 322° |
| 2026-05-05 15:53 | 6.80487 | -58.39305 | 13075 ft | 325 kts | 322° |
| 2026-05-05 15:54 | 6.82238 | -58.40760 | 13659 ft | 327 kts | 322° |
| 2026-05-05 15:54 | 6.84002 | -58.42226 | 14195 ft | 329 kts | 322° |
| 2026-05-05 15:54 | 6.85779 | -58.43703 | 14721 ft | 331 kts | 322° |
| 2026-05-05 15:54 | 6.87533 | -58.45162 | 15254 ft | 331 kts | 322° |
| 2026-05-05 15:55 | 6.89309 | -58.46639 | 15788 ft | 331 kts | 322° |
| 2026-05-05 15:55 | 6.91086 | -58.48117 | 16338 ft | 331 kts | 322° |
| 2026-05-05 15:55 | 6.92868 | -58.49600 | 16899 ft | 329 kts | 323° |
| 2026-05-05 15:55 | 6.94628 | -58.51063 | 17472 ft | 327 kts | 323° |
| 2026-05-05 15:56 | 6.96377 | -58.52519 | 18042 ft | 324 kts | 323° |
| 2026-05-05 15:56 | 6.98110 | -58.53961 | 18592 ft | 321 kts | 323° |
| 2026-05-05 15:56 | 6.99798 | -58.55364 | 19093 ft | 317 kts | 323° |
| 2026-05-05 15:56 | 7.01489 | -58.56769 | 19560 ft | 314 kts | 322° |
| 2026-05-05 15:57 | 7.03177 | -58.58172 | 19915 ft | 316 kts | 322° |
| 2026-05-05 15:57 | 7.04873 | -58.59581 | 20241 ft | 318 kts | 322° |
| 2026-05-05 15:57 | 7.06590 | -58.61008 | 20572 ft | 320 kts | 322° |
| 2026-05-05 15:57 | 7.08309 | -58.62436 | 20899 ft | 321 kts | 322° |
| 2026-05-05 15:58 | 7.10039 | -58.63875 | 21220 ft | 323 kts | 321° |
| 2026-05-05 15:58 | 7.11782 | -58.65325 | 21528 ft | 325 kts | 321° |
| 2026-05-05 15:58 | 7.13530 | -58.66780 | 21858 ft | 327 kts | 321° |
| 2026-05-05 15:58 | 7.15287 | -58.68243 | 22156 ft | 329 kts | 321° |
| 2026-05-05 15:59 | 7.17054 | -58.69714 | 22480 ft | 330 kts | 320° |
| 2026-05-05 15:59 | 7.18824 | -58.71187 | 22812 ft | 331 kts | 320° |
| 2026-05-05 15:59 | 7.20582 | -58.72650 | 23082 ft | 334 kts | 320° |
| 2026-05-05 15:59 | 7.22411 | -58.74173 | 23092 ft | 346 kts | 320° |
| 2026-05-05 16:00 | 7.24269 | -58.75722 | 23387 ft | 347 kts | 319° |
| 2026-05-05 16:00 | 7.26131 | -58.77271 | 23758 ft | 347 kts | 319° |
| 2026-05-05 16:00 | 7.27994 | -58.78823 | 24027 ft | 348 kts | 319° |
| 2026-05-05 16:00 | 7.29867 | -58.80383 | 24295 ft | 349 kts | 319° |
| 2026-05-05 16:01 | 7.31739 | -58.81944 | 24553 ft | 350 kts | 319° |
| 2026-05-05 16:01 | 7.33625 | -58.83516 | 24806 ft | 352 kts | 319° |
| 2026-05-05 16:01 | 7.35514 | -58.85091 | 25077 ft | 353 kts | 319° |
| 2026-05-05 16:01 | 7.37386 | -58.86652 | 25338 ft | 353 kts | 319° |
| 2026-05-05 16:02 | 7.39286 | -58.88235 | 25572 ft | 355 kts | 319° |
| 2026-05-05 16:02 | 7.41194 | -58.89827 | 25817 ft | 356 kts | 318° |
| 2026-05-05 16:02 | 7.43104 | -58.91421 | 26058 ft | 357 kts | 318° |
| 2026-05-05 16:02 | 7.45017 | -58.93017 | 26273 ft | 359 kts | 318° |
| 2026-05-05 16:03 | 7.46949 | -58.94628 | 26515 ft | 360 kts | 318° |
| 2026-05-05 16:03 | 7.48880 | -58.96239 | 26747 ft | 361 kts | 318° |
| 2026-05-05 16:03 | 7.50817 | -58.97855 | 26971 ft | 362 kts | 318° |
| 2026-05-05 16:03 | 7.52758 | -58.99475 | 27198 ft | 363 kts | 318° |
| 2026-05-05 16:04 | 7.54703 | -59.01099 | 27408 ft | 364 kts | 318° |
| 2026-05-05 16:04 | 7.56661 | -59.02734 | 27605 ft | 366 kts | 318° |
| 2026-05-05 16:04 | 7.58628 | -59.04377 | 27800 ft | 368 kts | 318° |
| 2026-05-05 16:04 | 7.60578 | -59.06006 | 28005 ft | 369 kts | 318° |
| 2026-05-05 16:05 | 7.62556 | -59.07658 | 28204 ft | 370 kts | 318° |
| 2026-05-05 16:05 | 7.64542 | -59.09318 | 28393 ft | 371 kts | 318° |
| 2026-05-05 16:05 | 7.66535 | -59.10982 | 28592 ft | 372 kts | 318° |
| 2026-05-05 16:05 | 7.68534 | -59.12654 | 28789 ft | 374 kts | 318° |
| 2026-05-05 16:06 | 7.70542 | -59.14332 | 28968 ft | 375 kts | 318° |
| 2026-05-05 16:06 | 7.72556 | -59.16015 | 29157 ft | 376 kts | 318° |
| 2026-05-05 16:06 | 7.74574 | -59.17702 | 29330 ft | 377 kts | 318° |